Dades meteomassalio
Diari Summary for Febrer 1, 2017 Units:  English    Metric   Both
« Previous Day
Next Day »
Diari Semanal Mensual Anual Personalitzat
  Maxima: Minima: Mijana:
Temperatura: TemperatureC °F 1.7 °F 7.9 °F
Rosada: DewpointC °F 0.8 °F 5.7 °F
Humitat: Humidity % 63 % 86 %
Velocitat del vent: WindSpeedKMH mph 0.0 mph 0.9 mph
Racha vent: WindSpeedGustKMH mph - -
Vent:- - ESE
Pressio: PressurehPa in 1015.8 in -
Pluja: 0.3 in    
Historical Graphs
 
 
Tabular Data for Febrer 1, 2017
Time Temperature Dew Point Pressure Wind Wind Speed Wind Gust Humidity Rainfall Rate (Hourly) solar Conditions
TemperatureC °F DewpointC °F PressurehPa in Calm     Humidity % HourlyPrecipMM in SolarRadiationWatts/m^2 W/m2 Conditions
00:03 5.2 °F 4.1 °F 1018.5 in Calm     92 % 0.0 in 0.0 W/m2 RA
00:08 5.2 °F 4.1 °F 1018.5 in Calm     93 % 0.0 in 0.0 W/m2 CLR
00:13 5.1 °F 4.0 °F 1018.5 in Calm     93 % 0.0 in 0.0 W/m2 CLR
00:18 4.9 °F 3.8 °F 1018.5 in Calm     92 % 0.0 in 0.0 W/m2 CLR
00:23 4.9 °F 3.9 °F 1018.5 in Calm     93 % 0.0 in 0.0 W/m2 CLR
00:28 4.9 °F 3.9 °F 1018.5 in Calm     93 % 0.0 in 0.0 W/m2 CLR
00:33 4.8 °F 3.8 °F 1018.8 in Calm     93 % 0.0 in 0.0 W/m2 CLR
00:38 4.7 °F 3.7 °F 1018.8 in Calm     93 % 0.0 in 0.0 W/m2 CLR
00:43 4.6 °F 3.6 °F 1018.8 in Calm     93 % 0.0 in 0.0 W/m2 CLR
00:48 4.5 °F 3.4 °F 1018.8 in Calm     93 % 0.0 in 0.0 W/m2 CLR
00:53 4.4 °F 3.3 °F 1018.8 in Calm     93 % 0.0 in 0.0 W/m2 CLR
00:58 4.3 °F 3.3 °F 1018.8 in Calm     93 % 0.0 in 0.0 W/m2 CLR
01:03 4.2 °F 3.2 °F 1018.8 in Calm     93 % 0.0 in 0.0 W/m2 CLR
01:08 4.2 °F 3.1 °F 1018.8 in Calm     93 % 0.0 in 0.0 W/m2 CLR
01:13 4.1 °F 3.1 °F 1018.8 in Calm     93 % 0.0 in 0.0 W/m2 CLR
01:18 4.1 °F 3.1 °F 1018.8 in Calm     93 % 0.0 in 0.0 W/m2 CLR
01:23 4.1 °F 3.1 °F 1018.8 in Calm     93 % 0.0 in 0.0 W/m2 CLR
01:28 4.2 °F 3.1 °F 1018.8 in Calm     93 % 0.0 in 0.0 W/m2 CLR
01:33 4.2 °F 3.2 °F 1018.8 in Calm     93 % 0.0 in 0.0 W/m2 CLR
01:38 4.1 °F 3.1 °F 1018.8 in Calm     93 % 0.0 in 0.0 W/m2 CLR
01:43 3.9 °F 2.9 °F 1018.8 in Calm     93 % 0.0 in 0.0 W/m2 CLR
01:48 3.8 °F 2.7 °F 1018.8 in Calm     93 % 0.0 in 0.0 W/m2 CLR
01:53 3.7 °F 2.7 °F 1018.8 in Calm     93 % 0.0 in 0.0 W/m2 CLR
01:58 3.7 °F 2.7 °F 1018.8 in Calm     93 % 0.0 in 0.0 W/m2 CLR
02:03 3.7 °F 2.7 °F 1018.8 in Calm     93 % 0.0 in 0.0 W/m2 CLR
02:08 3.8 °F 2.7 °F 1018.8 in Calm     93 % 0.0 in 0.0 W/m2 CLR
02:13 3.8 °F 2.7 °F 1018.8 in Calm     93 % 0.0 in 0.0 W/m2 CLR
02:18 3.6 °F 2.6 °F 1018.8 in Calm     93 % 0.0 in 0.0 W/m2 CLR
02:23 3.4 °F 2.4 °F 1018.8 in Calm     93 % 0.0 in 0.0 W/m2 CLR
02:28 3.3 °F 2.3 °F 1018.8 in Calm     93 % 0.0 in 0.0 W/m2 CLR
02:33 3.3 °F 2.3 °F 1018.8 in Calm     93 % 0.0 in 0.0 W/m2 CLR
02:38 3.3 °F 2.3 °F 1018.8 in Calm     93 % 0.0 in 0.0 W/m2 CLR
02:43 3.3 °F 2.3 °F 1018.8 in Calm     93 % 0.0 in 0.0 W/m2 CLR
02:48 3.3 °F 2.3 °F 1018.8 in Calm     93 % 0.0 in 0.0 W/m2 CLR
02:53 3.3 °F 2.3 °F 1018.8 in Calm     93 % 0.0 in 0.0 W/m2 CLR
02:58 3.3 °F 2.3 °F 1018.8 in Calm     93 % 0.0 in 0.0 W/m2 CLR
03:03 3.1 °F 2.1 °F 1018.8 in Calm     93 % 0.0 in 0.0 W/m2 CLR
03:08 3.1 °F 2.1 °F 1018.8 in Calm     93 % 0.0 in 0.0 W/m2 CLR
03:13 3.0 °F 2.0 °F 1018.8 in Calm     93 % 0.0 in 0.0 W/m2 CLR
03:18 2.9 °F 1.9 °F 1018.8 in Calm     93 % 0.0 in 0.0 W/m2 CLR
03:23 2.9 °F 1.9 °F 1018.8 in Calm     93 % 0.0 in 0.0 W/m2 CLR
03:28 2.9 °F 1.9 °F 1018.8 in Calm     93 % 0.0 in 0.0 W/m2 CLR
03:33 3.0 °F 2.1 °F 1018.8 in Calm     94 % 0.0 in 0.0 W/m2 CLR
03:38 3.1 °F 2.1 °F 1018.8 in Calm     93 % 0.0 in 0.0 W/m2 CLR
03:43 3.2 °F 2.3 °F 1018.8 in Calm     94 % 0.0 in 0.0 W/m2 CLR
03:48 3.3 °F 2.4 °F 1018.8 in Calm     94 % 0.0 in 0.0 W/m2 CLR
03:53 3.4 °F 2.5 °F 1018.8 in Calm     94 % 0.0 in 0.0 W/m2 CLR
03:58 3.2 °F 2.2 °F 1018.8 in Calm     93 % 0.0 in 0.0 W/m2 CLR
04:03 2.9 °F 1.9 °F 1018.8 in Calm     93 % 0.0 in 0.0 W/m2 CLR
04:08 2.8 °F 1.8 °F 1018.8 in Calm     93 % 0.0 in 0.0 W/m2 CLR
04:13 2.7 °F 1.7 °F 1018.8 in Calm     93 % 0.0 in 0.0 W/m2 CLR
04:18 2.7 °F 1.7 °F 1018.5 in Calm     93 % 0.0 in 0.0 W/m2 CLR
04:23 2.6 °F 1.6 °F 1018.5 in Calm     93 % 0.0 in 0.0 W/m2 CLR
04:27 2.5 °F 1.5 °F 1018.8 in Calm     93 % 0.0 in 0.0 W/m2 CLR
04:32 2.4 °F 1.4 °F 1018.8 in Calm     93 % 0.0 in 0.0 W/m2 CLR
04:37 2.4 °F 1.4 °F 1018.5 in Calm     93 % 0.0 in 0.0 W/m2 CLR
04:42 2.4 °F 1.4 °F 1018.5 in Calm     93 % 0.0 in 0.0 W/m2 CLR
04:47 2.5 °F 1.5 °F 1018.8 in Calm     93 % 0.0 in 0.0 W/m2 CLR
04:52 2.4 °F 1.4 °F 1018.8 in Calm     93 % 0.0 in 0.0 W/m2 CLR
04:57 2.4 °F 1.6 °F 1018.8 in Calm     94 % 0.0 in 0.0 W/m2 CLR
05:02 2.5 °F 1.6 °F 1018.8 in Calm     94 % 0.0 in 0.0 W/m2 CLR
05:07 2.7 °F 1.8 °F 1018.8 in Calm     94 % 0.0 in 0.0 W/m2 CLR
05:12 2.9 °F 2.1 °F 1018.8 in Calm     94 % 0.0 in 0.0 W/m2 CLR
05:17 3.0 °F 2.1 °F 1018.8 in Calm     94 % 0.0 in 0.0 W/m2 CLR
05:22 2.9 °F 2.1 °F 1019.2 in Calm     94 % 0.0 in 0.0 W/m2 CLR
05:27 2.8 °F 1.8 °F 1019.2 in Calm     93 % 0.0 in 0.0 W/m2 CLR
05:32 2.7 °F 1.7 °F 1019.2 in Calm     93 % 0.0 in 0.0 W/m2 CLR
05:37 2.7 °F 1.8 °F 1019.2 in Calm     94 % 0.0 in 0.0 W/m2 CLR
05:42 2.7 °F 1.8 °F 1019.2 in Calm     94 % 0.0 in 0.0 W/m2 CLR
05:47 2.7 °F 1.8 °F 1019.2 in Calm     94 % 0.0 in 0.0 W/m2 CLR
05:52 2.7 °F 1.8 °F 1019.2 in Calm     94 % 0.0 in 0.0 W/m2 CLR
05:57 2.7 °F 1.8 °F 1019.5 in Calm     94 % 0.0 in 0.0 W/m2 CLR
06:02 2.7 °F 1.8 °F 1019.5 in Calm     94 % 0.3 in 0.0 W/m2 RA
06:07 2.8 °F 1.9 °F 1019.2 in Calm     94 % 0.3 in 0.0 W/m2 CLR
06:12 2.6 °F 1.7 °F 1019.2 in Calm     94 % 0.3 in 0.0 W/m2 CLR
06:17 2.5 °F 1.5 °F 1019.2 in Calm     93 % 0.3 in 0.0 W/m2 CLR
06:22 2.4 °F 1.6 °F 1019.5 in Calm     94 % 0.3 in 0.0 W/m2 CLR
06:27 2.6 °F 1.7 °F 1019.5 in Calm     94 % 0.3 in 0.0 W/m2 CLR
06:32 2.4 °F 1.6 °F 1019.5 in Calm     94 % 0.3 in 0.0 W/m2 CLR
06:37 2.3 °F 1.4 °F 1019.5 in Calm     94 % 0.3 in 0.0 W/m2 CLR
06:42 2.2 °F 1.2 °F 1019.5 in Calm     93 % 0.3 in 0.0 W/m2 CLR
06:47 2.5 °F 1.6 °F 1019.2 in Calm     94 % 0.3 in 0.0 W/m2 CLR
06:52 2.6 °F 1.7 °F 1019.5 in Calm     94 % 0.3 in 0.0 W/m2 CLR
06:57 2.6 °F 1.7 °F 1019.5 in Calm     94 % 0.3 in 0.0 W/m2 CLR
07:02 2.7 °F 1.8 °F 1019.5 in Calm     94 % 0.0 in 0.0 W/m2 CLR
07:07 2.5 °F 1.6 °F 1019.5 in Calm     94 % 0.0 in 0.0 W/m2 CLR
07:12 2.2 °F 1.2 °F 1019.5 in Calm     93 % 0.0 in 0.0 W/m2 CLR
07:17 2.2 °F 1.3 °F 1019.5 in Calm     94 % 0.0 in 0.0 W/m2 CLR
07:22 2.1 °F 1.2 °F 1019.5 in Calm     94 % 0.0 in 0.0 W/m2 CLR
07:27 2.0 °F 1.1 °F 1019.5 in Calm     94 % 0.0 in 0.0 W/m2 CLR
07:32 1.8 °F 0.8 °F 1019.5 in Calm     93 % 0.0 in 0.0 W/m2 CLR
07:37 1.9 °F 1.0 °F 1019.5 in Calm     94 % 0.0 in 0.0 W/m2 CLR
07:42 2.1 °F 1.2 °F 1019.5 in Calm     94 % 0.0 in 0.0 W/m2 CLR
07:47 2.1 °F 1.2 °F 1019.5 in Calm     94 % 0.0 in 0.0 W/m2 CLR
07:52 1.8 °F 0.9 °F 1019.5 in Calm     94 % 0.0 in 0.0 W/m2 CLR
07:57 1.7 °F 0.8 °F 1019.5 in Calm     94 % 0.0 in 0.0 W/m2 CLR
08:02 1.7 °F 0.8 °F 1019.5 in Calm     94 % 0.0 in 0.0 W/m2 OVC
08:07 1.7 °F 0.8 °F 1019.5 in Calm     94 % 0.0 in 0.0 W/m2 OVC
08:12 1.7 °F 0.8 °F 1019.5 in Calm     94 % 0.0 in 5.0 W/m2 OVC
08:17 1.9 °F 1.0 °F 1019.5 in Calm     94 % 0.0 in 9.0 W/m2 BKN
08:22 1.9 °F 1.1 °F 1019.5 in Calm     94 % 0.0 in 14.0 W/m2 BKN
08:27 2.0 °F 1.1 °F 1019.5 in Calm     94 % 0.0 in 21.0 W/m2 BKN
08:32 2.1 °F 1.2 °F 1019.5 in Calm     94 % 0.0 in 28.0 W/m2 BKN
08:37 2.3 °F 1.4 °F 1019.5 in Calm     94 % 0.0 in 33.0 W/m2 BKN
08:42 2.4 °F 1.6 °F 1019.5 in Calm     94 % 0.0 in 47.0 W/m2 SCT
08:47 2.7 °F 1.8 °F 1019.5 in Calm     94 % 0.0 in 58.0 W/m2 SCT
08:52 2.9 °F 2.0 °F 1019.5 in Calm     94 % 0.0 in 72.0 W/m2 FEW
08:57 3.2 °F 2.3 °F 1019.5 in Calm     94 % 0.0 in 77.0 W/m2 FEW
09:02 3.6 °F 2.7 °F 1019.5 in Calm     94 % 0.0 in 72.0 W/m2 FEW
09:07 3.8 °F 2.9 °F 1019.5 in Calm     94 % 0.0 in 91.0 W/m2 FEW
09:13 3.9 °F 3.0 °F 1019.5 in Calm     94 % 0.0 in 93.0 W/m2 FEW
09:18 3.9 °F 3.1 °F 1019.2 in Calm     94 % 0.0 in 100.0 W/m2 CLR
09:23 4.1 °F 3.2 °F 1019.5 in Calm     94 % 0.0 in 118.0 W/m2 CLR
09:28 4.2 °F 3.3 °F 1019.5 in Calm     94 % 0.0 in 97.0 W/m2 CLR
09:33 4.3 °F 3.4 °F 1019.5 in Calm     94 % 0.0 in 102.0 W/m2 CLR
09:38 4.4 °F 3.6 °F 1019.5 in Calm     94 % 0.0 in 111.0 W/m2 CLR
09:43 4.3 °F 3.4 °F 1019.5 in Calm     94 % 0.0 in 127.0 W/m2 CLR
09:48 4.3 °F 3.4 °F 1019.5 in Calm     94 % 0.0 in 176.0 W/m2 CLR
09:53 4.5 °F 3.6 °F 1019.5 in Calm     94 % 0.0 in 214.0 W/m2 CLR
09:58 4.9 °F 4.0 °F 1019.2 in Calm     94 % 0.0 in 338.0 W/m2 CLR
10:03 5.3 °F 4.4 °F 1019.2 in Calm     94 % 0.0 in 341.0 W/m2 CLR
10:08 5.9 °F 5.0 °F 1019.2 in Calm     94 % 0.0 in 394.0 W/m2 CLR
10:13 6.4 °F 5.6 °F 1019.2 in Calm     94 % 0.0 in 192.0 W/m2 CLR
10:18 6.8 °F 5.9 °F 1019.5 in Calm     94 % 0.0 in 185.0 W/m2 CLR
10:23 6.9 °F 6.1 °F 1019.2 in Calm     94 % 0.0 in 179.0 W/m2 CLR
10:28 7.1 °F 6.2 °F 1019.5 in Calm     94 % 0.0 in 172.0 W/m2 CLR
10:33 7.1 °F 6.0 °F 1019.5 in Calm     93 % 0.0 in 172.0 W/m2 CLR
10:38 7.1 °F 6.0 °F 1019.2 in Calm     93 % 0.0 in 181.0 W/m2 CLR
10:43 7.1 °F 6.1 °F 1019.2 in Calm     93 % 0.0 in 188.0 W/m2 CLR
10:48 7.3 °F 6.1 °F 1019.2 in Calm     92 % 0.0 in 193.0 W/m2 CLR
10:53 7.4 °F 6.2 °F 1019.2 in Calm     92 % 0.0 in 211.0 W/m2 CLR
10:58 7.6 °F 6.2 °F 1019.2 in Calm     91 % 0.0 in 209.0 W/m2 CLR
11:03 7.8 °F 6.4 °F 1019.2 in Calm     91 % 0.0 in 216.0 W/m2 CLR
11:08 8.0 °F 6.4 °F 1019.2 in Calm     90 % 0.0 in 221.0 W/m2 CLR
11:13 8.2 °F 6.8 °F 1019.5 in Calm     91 % 0.0 in 260.0 W/m2 CLR
11:18 8.5 °F 6.9 °F 1019.2 in Calm     90 % 0.0 in 260.0 W/m2 CLR
11:23 8.7 °F 7.0 °F 1019.2 in Calm     89 % 0.0 in 292.0 W/m2 CLR
11:28 8.9 °F 7.1 °F 1019.5 in Calm     88 % 0.0 in 258.0 W/m2 CLR
11:33 9.1 °F 7.2 °F 1019.5 in Calm     88 % 0.0 in 281.0 W/m2 CLR
11:38 9.4 °F 7.5 °F 1019.2 in Calm     88 % 0.0 in 278.0 W/m2 CLR
11:43 9.6 °F 7.7 °F 1019.2 in Calm     88 % 0.0 in 297.0 W/m2 CLR
11:49 9.7 °F 7.8 °F 1019.2 in Calm     88 % 0.0 in 313.0 W/m2 CLR
11:53 9.9 °F 8.1 °F 1019.2 in Calm     88 % 0.0 in 441.0 W/m2 CLR
11:59 10.2 °F 8.3 °F 1019.2 in Calm     88 % 0.0 in 415.0 W/m2 CLR
12:04 10.4 °F 8.6 °F 1018.8 in NE 1.9 mph   88 % 0.0 in 283.0 W/m2 CLR
12:09 10.6 °F 8.5 °F 1018.8 in Calm     87 % 0.0 in 420.0 W/m2 CLR
12:14 10.7 °F 8.7 °F 1018.8 in Calm     87 % 0.0 in 397.0 W/m2 CLR
12:19 10.8 °F 8.6 °F 1018.8 in Calm     86 % 0.0 in 445.0 W/m2 CLR
12:24 11.0 °F 8.7 °F 1018.8 in Calm     86 % 0.0 in 506.0 W/m2 CLR
12:29 11.3 °F 8.8 °F 1018.8 in NE 7.4 mph 7.4 mph 85 % 0.0 in 515.0 W/m2 CLR
12:34 11.5 °F 9.1 °F 1018.5 in ENE 5.6 mph 5.6 mph 85 % 0.0 in 519.0 W/m2 CLR
12:39 11.7 °F 9.1 °F 1018.5 in ENE 5.6 mph   84 % 0.0 in 519.0 W/m2 CLR
12:44 12.0 °F 9.2 °F 1018.5 in ENE 6.4 mph 6.4 mph 83 % 0.0 in 522.0 W/m2 CLR
12:49 12.1 °F 9.1 °F 1018.5 in Calm     82 % 0.0 in 524.0 W/m2 CLR
12:54 12.1 °F 9.3 °F 1018.5 in NE 6.4 mph 6.4 mph 83 % 0.0 in 524.0 W/m2 CLR
12:59 12.2 °F 9.4 °F 1018.5 in ENE 7.4 mph 7.4 mph 83 % 0.0 in 513.0 W/m2 CLR
13:04 11.9 °F 9.2 °F 1018.5 in ENE 9.3 mph 9.3 mph 83 % 0.0 in 522.0 W/m2 CLR
13:09 11.9 °F 9.1 °F 1018.5 in NE 11.1 mph 11.1 mph 83 % 0.0 in 522.0 W/m2 CLR
13:14 11.8 °F 9.2 °F 1018.5 in NE 14.8 mph 14.8 mph 84 % 0.0 in 526.0 W/m2 CLR
13:15 11.7 °F 9.1 °F 1018.5 in NE 11.3 mph 11.3 mph 84 % 0.0 in 527.0 W/m2 CLR
13:20 11.6 °F 9.1 °F 1018.5 in ENE 9.3 mph 9.3 mph 85 % 0.0 in 527.0 W/m2 CLR
13:25 11.7 °F 9.4 °F 1018.5 in ENE 11.1 mph 11.1 mph 86 % 0.0 in 527.0 W/m2 CLR
13:30 11.8 °F 9.3 °F 1018.2 in ENE 11.1 mph 11.1 mph 85 % 0.0 in 526.0 W/m2 CLR
13:35 11.9 °F 9.3 °F 1018.2 in ENE 11.1 mph 11.1 mph 84 % 0.0 in 524.0 W/m2 CLR
13:40 12.0 °F 9.4 °F 1018.2 in ENE 11.1 mph 11.1 mph 84 % 0.0 in 524.0 W/m2 CLR
13:45 12.1 °F 9.5 °F 1018.2 in ENE 9.3 mph 9.3 mph 84 % 0.0 in 520.0 W/m2 CLR
13:50 12.2 °F 9.6 °F 1018.2 in ENE 9.3 mph 9.3 mph 84 % 0.0 in 517.0 W/m2 CLR
13:55 12.1 °F 9.3 °F 1018.2 in ENE 5.6 mph 5.6 mph 83 % 0.0 in 512.0 W/m2 CLR
14:00 12.2 °F 9.4 °F 1018.2 in Calm   0.6 mph 83 % 0.0 in 497.0 W/m2 CLR
14:05 12.3 °F 9.5 °F 1018.2 in ENE 5.6 mph 5.6 mph 83 % 0.0 in 501.0 W/m2 CLR
14:10 12.3 °F 9.5 °F 1017.8 in ENE 7.4 mph 7.4 mph 83 % 0.0 in 501.0 W/m2 CLR
14:15 12.4 °F 9.4 °F 1017.8 in ENE 7.4 mph 7.4 mph 82 % 0.0 in 503.0 W/m2 CLR
14:20 12.4 °F 9.2 °F 1017.8 in ENE 5.6 mph   81 % 0.0 in 492.0 W/m2 CLR
14:25 12.5 °F 9.3 °F 1017.8 in Calm     81 % 0.0 in 487.0 W/m2 CLR
14:30 12.7 °F 9.6 °F 1017.5 in NE 7.4 mph 7.4 mph 81 % 0.0 in 496.0 W/m2 CLR
14:35 12.9 °F 9.7 °F 1017.5 in Calm     81 % 0.0 in 478.0 W/m2 CLR
14:40 13.2 °F 9.8 °F 1017.5 in Calm     80 % 0.0 in 461.0 W/m2 CLR
14:45 13.4 °F 9.7 °F 1017.5 in Calm     78 % 0.0 in 454.0 W/m2 CLR
14:50 13.6 °F 9.6 °F 1017.2 in Calm     77 % 0.0 in 424.0 W/m2 CLR
14:55 13.6 °F 9.7 °F 1017.2 in Calm     77 % 0.0 in 401.0 W/m2 CLR
15:00 13.6 °F 9.4 °F 1017.2 in Calm     76 % 0.0 in 388.0 W/m2 CLR
15:05 13.7 °F 9.6 °F 1016.8 in Calm     76 % 0.0 in 445.0 W/m2 CLR
15:10 14.1 °F 9.7 °F 1016.8 in Calm     75 % 0.0 in 399.0 W/m2 CLR
15:15 14.5 °F 10.1 °F 1016.8 in Calm     75 % 0.0 in 418.0 W/m2 CLR
15:20 14.9 °F 9.9 °F 1016.5 in Calm     72 % 0.0 in 410.0 W/m2 CLR
15:26 15.1 °F 10.3 °F 1016.5 in Calm     73 % 0.0 in 415.0 W/m2 CLR
15:31 15.4 °F 9.9 °F 1016.5 in Calm     70 % 0.0 in 345.0 W/m2 CLR
15:36 15.6 °F 9.7 °F 1016.5 in Calm     68 % 0.0 in 332.0 W/m2 CLR
15:41 15.7 °F 9.8 °F 1016.5 in Calm     68 % 0.0 in 269.0 W/m2 CLR
15:46 15.6 °F 9.9 °F 1016.5 in Calm     69 % 0.0 in 227.0 W/m2 CLR
15:51 15.8 °F 9.7 °F 1016.5 in Calm     67 % 0.0 in 211.0 W/m2 CLR
15:56 15.8 °F 9.7 °F 1016.5 in Calm     67 % 0.0 in 262.0 W/m2 CLR
16:01 15.8 °F 9.4 °F 1016.5 in Calm     66 % 0.0 in 315.0 W/m2 CLR
16:06 15.8 °F 9.7 °F 1016.5 in Calm     67 % 0.0 in 301.0 W/m2 CLR
16:11 15.9 °F 9.8 °F 1016.1 in Calm     67 % 0.0 in 278.0 W/m2 CLR
16:16 16.1 °F 9.7 °F 1016.1 in Calm     66 % 0.0 in 285.0 W/m2 CLR
16:21 16.2 °F 9.6 °F 1016.1 in Calm     65 % 0.0 in 255.0 W/m2 CLR
16:26 16.2 °F 9.8 °F 1016.1 in Calm     66 % 0.0 in 225.0 W/m2 CLR
16:28 16.2 °F 9.8 °F 1016.1 in Calm     66 % 0.0 in 209.0 W/m2 CLR
16:33 16.3 °F 9.7 °F 1016.1 in Calm     65 % 0.0 in 206.0 W/m2 CLR
16:38 16.3 °F 9.7 °F 1016.1 in Calm     65 % 0.0 in 128.0 W/m2 CLR
16:43 16.3 °F 9.7 °F 1016.1 in Calm     65 % 0.0 in 88.0 W/m2 CLR
16:48 16.2 °F 9.6 °F 1015.8 in NE 1.9 mph   65 % 0.0 in 98.0 W/m2 CLR
16:53 15.9 °F 9.4 °F 1015.8 in ENE 1.9 mph 1.9 mph 65 % 0.0 in 105.0 W/m2 CLR
16:58 15.8 °F 9.1 °F 1015.8 in ESE 3.7 mph 3.7 mph 64 % 0.0 in 100.0 W/m2 CLR
17:03 15.8 °F 8.7 °F 1015.8 in Calm     63 % 0.0 in 102.0 W/m2 CLR
17:08 15.8 °F 9.3 °F 1015.8 in Calm     65 % 0.0 in 90.0 W/m2 CLR
17:13 15.9 °F 9.6 °F 1015.8 in Calm     66 % 0.0 in 98.0 W/m2 CLR
17:18 16.0 °F 9.7 °F 1015.8 in Calm     66 % 0.0 in 134.0 W/m2 CLR
17:23 16.1 °F 9.5 °F 1015.8 in Calm     65 % 0.0 in 120.0 W/m2 CLR
17:28 16.3 °F 9.4 °F 1015.8 in Calm     64 % 0.0 in 97.0 W/m2 CLR
17:33 16.4 °F 9.6 °F 1015.8 in Calm     64 % 0.0 in 86.0 W/m2 CLR
17:38 16.4 °F 9.6 °F 1015.8 in Calm     64 % 0.0 in 69.0 W/m2 FEW
17:43 16.3 °F 9.5 °F 1015.8 in Calm     64 % 0.0 in 56.0 W/m2 SCT
17:48 16.2 °F 9.3 °F 1016.1 in Calm     64 % 0.0 in 39.0 W/m2 BKN
17:53 16.0 °F 9.4 °F 1016.1 in Calm     65 % 0.0 in 33.0 W/m2 BKN
17:58 15.9 °F 9.6 °F 1016.1 in Calm     66 % 0.0 in 26.0 W/m2 BKN
18:02 15.7 °F 9.4 °F 1016.1 in Calm     66 % 0.0 in 23.0 W/m2 BKN
18:07 15.5 °F 9.4 °F 1016.1 in Calm     67 % 0.0 in 19.0 W/m2 BKN
18:12 15.3 °F 9.4 °F 1016.1 in Calm     68 % 0.0 in 14.0 W/m2 BKN
18:17 15.0 °F 9.3 °F 1016.1 in Calm     69 % 0.0 in 11.0 W/m2 OVC
18:22 14.8 °F 9.6 °F 1016.1 in Calm     71 % 0.0 in 5.0 W/m2 OVC
18:27 14.6 °F 9.6 °F 1016.1 in Calm     72 % 0.0 in 0.0 W/m2 CLR
18:32 14.3 °F 9.6 °F 1016.1 in Calm     73 % 0.0 in 0.0 W/m2 CLR
18:37 14.1 °F 9.3 °F 1016.1 in Calm     73 % 0.0 in 0.0 W/m2 CLR
18:42 13.7 °F 9.2 °F 1016.1 in Calm     74 % 0.0 in 0.0 W/m2 CLR
18:47 13.4 °F 9.1 °F 1016.5 in Calm     75 % 0.0 in 0.0 W/m2 CLR
18:52 13.2 °F 9.0 °F 1016.5 in Calm     76 % 0.0 in 0.0 W/m2 CLR
18:53 13.1 °F 9.2 °F 1016.5 in Calm     77 % 0.0 in 0.0 W/m2 CLR
18:58 12.9 °F 8.9 °F 1016.5 in Calm     77 % 0.0 in 0.0 W/m2 CLR
19:03 12.6 °F 8.9 °F 1016.5 in Calm     78 % 0.0 in 0.0 W/m2 CLR
19:08 12.4 °F 8.9 °F 1016.8 in Calm     79 % 0.0 in 0.0 W/m2 CLR
19:13 12.3 °F 8.9 °F 1016.8 in Calm     80 % 0.0 in 0.0 W/m2 CLR
19:18 11.9 °F 8.3 °F 1016.8 in Calm     79 % 0.0 in 0.0 W/m2 CLR
19:23 11.4 °F 8.1 °F 1016.8 in Calm     80 % 0.0 in 0.0 W/m2 CLR
19:28 11.0 °F 7.9 °F 1016.8 in Calm     81 % 0.0 in 0.0 W/m2 CLR
19:33 10.8 °F 8.0 °F 1016.8 in Calm     83 % 0.0 in 0.0 W/m2 CLR
19:38 10.6 °F 8.0 °F 1016.8 in Calm     84 % 0.0 in 0.0 W/m2 CLR
19:43 10.6 °F 8.1 °F 1017.2 in Calm     85 % 0.0 in 0.0 W/m2 CLR
19:48 10.5 °F 8.1 °F 1017.2 in Calm     85 % 0.0 in 0.0 W/m2 CLR
19:53 10.4 °F 8.1 °F 1017.2 in Calm     85 % 0.0 in 0.0 W/m2 CLR
19:58 10.2 °F 7.8 °F 1017.2 in Calm     85 % 0.0 in 0.0 W/m2 CLR
20:03 9.8 °F 7.4 °F 1017.2 in Calm     85 % 0.0 in 0.0 W/m2 CLR
20:08 9.5 °F 7.3 °F 1017.2 in Calm     86 % 0.0 in 0.0 W/m2 CLR
20:13 9.4 °F 7.6 °F 1017.5 in Calm     88 % 0.0 in 0.0 W/m2 CLR
20:18 9.4 °F 7.5 °F 1017.5 in West 6.4 mph 6.4 mph 88 % 0.0 in 0.0 W/m2 CLR
20:23 9.7 °F 8.0 °F 1017.5 in WNW 11.1 mph 11.1 mph 89 % 0.0 in 0.0 W/m2 CLR
20:28 9.9 °F 8.0 °F 1017.5 in NW 11.1 mph 11.1 mph 88 % 0.0 in 0.0 W/m2 CLR
20:33 9.8 °F 7.7 °F 1017.5 in WNW 6.4 mph 6.4 mph 87 % 0.0 in 0.0 W/m2 CLR
20:38 9.5 °F 7.4 °F 1017.5 in Calm     87 % 0.0 in 0.0 W/m2 CLR
20:43 9.4 °F 7.6 °F 1017.5 in Calm     88 % 0.0 in 0.0 W/m2 CLR
20:48 9.5 °F 7.8 °F 1017.5 in Calm     89 % 0.0 in 0.0 W/m2 CLR
20:53 9.4 °F 7.6 °F 1017.5 in Calm     88 % 0.0 in 0.0 W/m2 CLR
20:58 9.4 °F 7.5 °F 1017.5 in West 3.7 mph 3.7 mph 88 % 0.0 in 0.0 W/m2 CLR
21:03 9.3 °F 7.4 °F 1017.5 in Calm     88 % 0.0 in 0.0 W/m2 CLR
21:08 9.1 °F 7.2 °F 1017.8 in Calm     88 % 0.0 in 0.0 W/m2 CLR
21:13 8.9 °F 7.2 °F 1017.8 in Calm     89 % 0.0 in 0.0 W/m2 CLR
21:18 8.8 °F 7.1 °F 1017.8 in Calm     89 % 0.0 in 0.0 W/m2 CLR
21:23 8.7 °F 7.0 °F 1017.5 in Calm     89 % 0.0 in 0.0 W/m2 CLR
21:28 8.7 °F 6.9 °F 1017.5 in WSW 5.6 mph 5.6 mph 89 % 0.0 in 0.0 W/m2 CLR
21:33 8.8 °F 7.2 °F 1017.5 in SW 3.7 mph 3.7 mph 90 % 0.0 in 0.0 W/m2 CLR
21:38 8.8 °F 7.2 °F 1017.5 in Calm     90 % 0.0 in 0.0 W/m2 CLR
21:43 8.6 °F 6.8 °F 1017.5 in Calm     89 % 0.0 in 0.0 W/m2 CLR
21:48 8.3 °F 6.6 °F 1017.5 in Calm     89 % 0.0 in 0.0 W/m2 CLR
21:53 8.3 °F 6.7 °F 1017.5 in Calm     90 % 0.0 in 0.0 W/m2 CLR
21:58 8.2 °F 6.6 °F 1017.8 in Calm     90 % 0.0 in 0.0 W/m2 CLR
22:03 8.0 °F 6.4 °F 1017.5 in Calm     90 % 0.0 in 0.0 W/m2 CLR
22:08 7.9 °F 6.3 °F 1017.8 in Calm     90 % 0.0 in 0.0 W/m2 CLR
22:13 7.8 °F 6.2 °F 1017.8 in Calm     90 % 0.0 in 0.0 W/m2 CLR
22:18 7.7 °F 6.3 °F 1017.5 in Calm     91 % 0.0 in 0.0 W/m2 CLR
22:23 7.6 °F 6.2 °F 1017.5 in Calm     91 % 0.0 in 0.0 W/m2 CLR
22:28 7.4 °F 6.0 °F 1017.5 in Calm     91 % 0.0 in 0.0 W/m2 CLR
22:33 7.4 °F 6.0 °F 1017.5 in Calm     91 % 0.0 in 0.0 W/m2 CLR
22:38 7.2 °F 5.8 °F 1017.5 in Calm     91 % 0.0 in 0.0 W/m2 CLR
22:43 7.2 °F 5.8 °F 1017.5 in Calm     91 % 0.0 in 0.0 W/m2 CLR
22:48 7.2 °F 5.9 °F 1017.8 in SSW 7.4 mph 7.4 mph 92 % 0.0 in 0.0 W/m2 CLR
22:53 7.4 °F 6.2 °F 1017.5 in SW 1.9 mph   92 % 0.0 in 0.0 W/m2 CLR
22:58 7.3 °F 5.9 °F 1017.5 in Calm     91 % 0.0 in 0.0 W/m2 CLR
23:03 7.1 °F 5.7 °F 1017.5 in Calm     91 % 0.0 in 0.0 W/m2 CLR
23:08 7.1 °F 5.8 °F 1017.5 in Calm     92 % 0.0 in 0.0 W/m2 CLR
23:13 7.0 °F 5.8 °F 1017.5 in Calm     92 % 0.0 in 0.0 W/m2 CLR
23:18 6.9 °F 5.7 °F 1017.5 in Calm     92 % 0.0 in 0.0 W/m2 CLR
23:23 6.9 °F 5.7 °F 1017.5 in Calm     92 % 0.0 in 0.0 W/m2 CLR
23:28 6.8 °F 5.6 °F 1017.5 in Calm     92 % 0.0 in 0.0 W/m2 CLR
23:33 6.8 °F 5.6 °F 1017.5 in Calm     92 % 0.0 in 0.0 W/m2 CLR
23:38 6.7 °F 5.5 °F 1017.5 in Calm     92 % 0.0 in 0.0 W/m2 CLR
23:43 6.5 °F 5.3 °F 1017.5 in Calm     92 % 0.0 in 0.0 W/m2 CLR
23:48 6.5 °F 5.3 °F 1017.5 in Calm     92 % 0.0 in 0.0 W/m2 CLR
23:53 6.4 °F 5.2 °F 1017.5 in Calm     92 % 0.0 in 0.0 W/m2 CLR
23:59 6.4 °F 5.2 °F 1017.2 in Calm     92 % 0.0 in 0.0 W/m2 CLR
Lo Temps de Massalio
Compliments of Weather Underground - 1.25 mb